| time (UTC) | temp F | wind direction | speed MPH | gust MPH | rain 1hr in | rain 24hr in | rain mn in | humidity % | barometer mb |
| 20260508064512 | 66 | 269 | 0.0 | 2.0 | 0.00 | 0.38 | 0.01 | 91 | 1014.9 |
| 20260508063021 | 67 | 332 | 1.0 | 2.0 | 0.00 | 0.38 | 0.01 | 91 | 1014.9 |
| 20260508061523 | 67 | 330 | 0.0 | 2.0 | 0.01 | 0.38 | 0.01 | 91 | 1014.5 |
| 20260508060028 | 67 | 328 | 0.0 | 2.0 | 0.01 | 0.38 | 0.01 | 90 | 1015.1 |
| 20260508054534 | 67 | 137 | 1.0 | 5.0 | 0.01 | 0.38 | 0.01 | 90 | 1014.7 |
| 20260508053016 | 68 | 315 | 0.0 | 2.0 | 0.01 | 0.38 | 0.01 | 90 | 1014.7 |
| 20260508051518 | 68 | 330 | 1.0 | 4.0 | 0.00 | 0.37 | 0.00 | 90 | 1015.3 |
| 20260508050024 | 68 | 356 | 1.0 | 5.0 | 0.00 | 0.37 | 0.00 | 90 | 1015.2 |
| 20260508044528 | 68 | 319 | 1.0 | 2.0 | 0.00 | 0.37 | 0.37 | 90 | 1014.9 |
| 20260508043016 | 69 | 326 | 1.0 | 3.0 | 0.00 | 0.37 | 0.37 | 90 | 1015.0 |
| 20260508041520 | 69 | 310 | 0.0 | 2.0 | 0.00 | 0.37 | 0.37 | 89 | 1014.6 |
| 20260508040031 | 69 | 281 | 0.0 | 2.0 | 0.01 | 0.37 | 0.37 | 89 | 1014.9 |
| 20260508034533 | 70 | 253 | 1.0 | 6.0 | 0.01 | 0.37 | 0.37 | 88 | 1015.0 |
| 20260508033017 | 70 | 284 | 2.0 | 7.0 | 0.01 | 0.37 | 0.37 | 87 | 1015.1 |
| 20260508031519 | 71 | 351 | 2.0 | 9.0 | 0.01 | 0.37 | 0.37 | 87 | 1014.9 |
| 20260508030022 | 72 | 359 | 2.0 | 3.0 | 0.00 | 0.36 | 0.36 | 87 | 1015.0 |
| 20260508024526 | 72 | 325 | 1.0 | 2.0 | 0.00 | 0.36 | 0.36 | 87 | 1015.0 |
| 20260508023023 | 73 | 359 | 1.0 | 5.0 | 0.01 | 0.36 | 0.36 | 87 | 1015.1 |
| 20260508021517 | 73 | 313 | 2.0 | 5.0 | 0.01 | 0.36 | 0.36 | 86 | 1014.9 |
| 20260508020021 | 73 | 326 | 2.0 | 3.0 | 0.01 | 0.36 | 0.36 | 87 | 1014.7 |
| 20260508014534 | 73 | 333 | 0.0 | 2.0 | 0.01 | 0.36 | 0.36 | 88 | 1014.4 |
| 20260508013025 | 73 | 324 | 0.0 | 2.0 | 0.00 | 0.35 | 0.35 | 87 | 1014.2 |
| 20260508011528 | 73 | 302 | 1.0 | 3.0 | 0.01 | 0.35 | 0.35 | 87 | 1013.9 |
| 20260508010027 | 74 | 345 | 0.0 | 4.0 | 0.01 | 0.35 | 0.35 | 87 | 1013.7 |
| 20260508004509 | 74 | 323 | 0.0 | 4.0 | 0.01 | 0.35 | 0.35 | 87 | 1013.6 |
| 20260508003008 | 74 | 324 | 1.0 | 5.0 | 0.01 | 0.35 | 0.35 | 87 | 1013.7 |
| 20260508001513 | 75 | 299 | 2.0 | 5.0 | 0.00 | 0.34 | 0.34 | 86 | 1013.6 |
| 20260508000017 | 75 | 296 | 2.0 | 6.0 | 0.01 | 0.34 | 0.34 | 87 | 1013.5 |
| 20260507234521 | 76 | 322 | 1.0 | 6.0 | 0.01 | 0.34 | 0.34 | 87 | 1013.7 |
| 20260507233006 | 76 | 1 | 1.0 | 4.0 | 0.01 | 0.34 | 0.34 | 87 | 1013.4 |
| 20260507231512 | 77 | 359 | 3.0 | 4.0 | 0.01 | 0.34 | 0.34 | 87 | 1013.5 |
| 20260507230021 | 78 | 63 | 0.0 | 0.0 | 0.01 | 0.33 | 0.33 | 87 | 1013.4 |
| 20260507224518 | 78 | 313 | 1.0 | 3.0 | 0.01 | 0.33 | 0.33 | 86 | 1013.3 |
| 20260507223024 | 78 | 354 | 1.0 | 3.0 | 0.01 | 0.33 | 0.33 | 87 | 1013.4 |
| 20260507221510 | 78 | 356 | 1.0 | 3.0 | 0.01 | 0.33 | 0.33 | 86 | 1013.3 |
| 20260507220014 | 77 | 292 | 2.0 | 4.0 | 0.01 | 0.32 | 0.32 | 88 | 1013.2 |
| 20260507214527 | 77 | 311 | 2.0 | 3.0 | 0.01 | 0.32 | 0.32 | 88 | 1013.2 |
| 20260507213019 | 77 | 285 | 0.0 | 4.0 | 0.02 | 0.32 | 0.32 | 89 | 1013.3 |
| 20260507211534 | 77 | 360 | 1.0 | 3.0 | 0.02 | 0.32 | 0.32 | 90 | 1013.2 |
| 20260507210010 | 76 | 307 | 0.0 | 2.0 | 0.01 | 0.31 | 0.31 | 90 | 1013.2 |
| 20260507204520 | 76 | 360 | 1.0 | 2.0 | 0.02 | 0.31 | 0.31 | 91 | 1013.3 |
| 20260507203023 | 75 | 324 | 1.0 | 2.0 | 0.01 | 0.30 | 0.30 | 92 | 1013.4 |
| 20260507201521 | 75 | 351 | 1.0 | 3.0 | 0.02 | 0.30 | 0.30 | 92 | 1013.5 |
| 20260507200025 | 74 | 124 | 0.0 | 2.0 | 0.02 | 0.30 | 0.30 | 93 | 1013.5 |
| 20260507194514 | 74 | 312 | 0.0 | 2.0 | 0.02 | 0.29 | 0.29 | 93 | 1013.5 |
| 20260507193018 | 73 | 158 | 0.0 | 2.0 | 0.03 | 0.29 | 0.29 | 93 | 1013.7 |
| 20260507191523 | 72 | 115 | 0.0 | 2.0 | 0.02 | 0.28 | 0.28 | 93 | 1013.9 |
| 20260507190024 | 72 | 128 | 0.0 | 2.0 | 0.03 | 0.28 | 0.28 | 93 | 1013.9 |
| 20260507184514 | 72 | 301 | 0.0 | 0.0 | 0.03 | 0.27 | 0.27 | 93 | 1014.2 |
| 20260507183033 | 72 | 301 | 0.0 | 2.0 | 0.03 | 0.26 | 0.26 | 93 | 1014.3 |
| 20260507181521 | 72 | 37 | 0.0 | 3.0 | 0.03 | 0.26 | 0.26 | 92 | 1014.1 |
| 20260507180027 | 72 | 350 | 0.0 | 2.0 | 0.03 | 0.25 | 0.25 | 92 | 1014.4 |
| 20260507174524 | 72 | 104 | 0.0 | 2.0 | 0.04 | 0.24 | 0.24 | 93 | 1014.2 |
| 20260507173017 | 71 | 354 | 0.0 | 2.0 | 0.04 | 0.23 | 0.23 | 93 | 1014.7 |
| 20260507171518 | 71 | 356 | 1.0 | 5.0 | 0.05 | 0.23 | 0.23 | 92 | 1015.0 |
| 20260507170024 | 71 | 84 | 0.0 | 2.0 | 0.06 | 0.22 | 0.22 | 93 | 1014.9 |
| 20260507164527 | 71 | 16 | 0.0 | 2.0 | 0.07 | 0.20 | 0.20 | 92 | 1014.9 |
| 20260507163025 | 71 | 352 | 0.0 | 2.0 | 0.08 | 0.19 | 0.19 | 92 | 1015.0 |
| 20260507161521 | 71 | 2 | 0.0 | 2.0 | 0.11 | 0.18 | 0.18 | 92 | 1015.2 |
| 20260507160009 | 71 | 1 | 1.0 | 7.0 | 0.15 | 0.16 | 0.16 | 92 | 1015.0 |
| 20260507154505 | 72 | 335 | 1.0 | 4.0 | 0.13 | 0.13 | 0.13 | 91 | 1015.3 |
| 20260507153011 | 73 | 323 | 3.0 | 5.0 | 0.11 | 0.11 | 0.11 | 90 | 1015.1 |
| 20260507151516 | 74 | 188 | 2.0 | 5.0 | 0.07 | 0.07 | 0.07 | 90 | 1015.1 |
| 20260507150027 | 77 | 294 | 5.0 | 11.0 | 0.01 | 0.01 | 0.01 | 87 | 1015.3 |
| 20260507144504 | 79 | 25 | 2.0 | 7.0 | 0.00 | 0.00 | 0.00 | 87 | 1013.9 |
| 20260507143011 | 80 | 45 | 2.0 | 9.0 | 0.00 | 0.00 | 0.00 | 86 | 1014.0 |
| 20260507141519 | 81 | 18 | 2.0 | 6.0 | 0.00 | 0.00 | 0.00 | 85 | 1013.7 |
| 20260507140018 | 80 | 348 | 3.0 | 8.0 | 0.00 | 0.00 | 0.00 | 87 | 1013.6 |
| 20260507134522 | 79 | 15 | 3.0 | 12.0 | 0.00 | 0.00 | 0.00 | 88 | 1013.5 |
| 20260507133009 | 79 | 49 | 2.0 | 7.0 | 0.00 | 0.00 | 0.00 | 89 | 1013.6 |
| 20260507131511 | 78 | 330 | 4.0 | 9.0 | 0.00 | 0.00 | 0.00 | 90 | 1013.6 |
| 20260507130024 | 77 | 13 | 2.0 | 10.0 | 0.00 | 0.00 | 0.00 | 90 | 1013.7 |
| 20260507124536 | 77 | 49 | 2.0 | 11.0 | 0.00 | 0.00 | 0.00 | 91 | 1013.6 |
| 20260507123027 | 77 | 357 | 2.0 | 8.0 | 0.00 | 0.00 | 0.00 | 91 | 1013.5 |
| 20260507121510 | 77 | 360 | 1.0 | 9.0 | 0.00 | 0.00 | 0.00 | 91 | 1013.5 |
| 20260507120015 | 76 | 33 | 1.0 | 7.0 | 0.00 | 0.00 | 0.00 | 92 | 1013.2 |
| 20260507114519 | 76 | 1 | 1.0 | 6.0 | 0.00 | 0.00 | 0.00 | 92 | 1013.2 |
| 20260507113023 | 76 | 321 | 4.0 | 8.0 | 0.00 | 0.00 | 0.00 | 92 | 1013.2 |
| 20260507110025 | 76 | 45 | 3.0 | 10.0 | 0.00 | 0.00 | 0.00 | 92 | 1012.5 |
| 20260507104517 | 76 | 44 | 4.0 | 12.0 | 0.00 | 0.00 | 0.00 | 92 | 1012.3 |
| 20260507103021 | 76 | 30 | 3.0 | 11.0 | 0.00 | 0.00 | 0.00 | 92 | 1012.1 |
| 20260507101526 | 76 | 274 | 2.0 | 7.0 | 0.00 | 0.00 | 0.00 | 92 | 1011.9 |
| 20260507100021 | 76 | 15 | 2.0 | 8.0 | 0.00 | 0.00 | 0.00 | 91 | 1012.1 |
| 20260507094516 | 76 | 8 | 1.0 | 6.0 | 0.00 | 0.00 | 0.00 | 91 | 1011.9 |
| 20260507093031 | 76 | 32 | 1.0 | 8.0 | 0.00 | 0.00 | 0.00 | 92 | 1011.9 |
| 20260507091535 | 76 | 34 | 2.0 | 6.0 | 0.00 | 0.00 | 0.00 | 92 | 1011.6 |
| 20260507090028 | 76 | 137 | 2.0 | 8.0 | 0.00 | 0.00 | 0.00 | 92 | 1011.8 |
| 20260507084519 | 76 | 112 | 1.0 | 7.0 | 0.00 | 0.00 | 0.00 | 92 | 1011.9 |
| 20260507083020 | 76 | 119 | 3.0 | 7.0 | 0.00 | 0.00 | 0.00 | 92 | 1012.2 |
| 20260507081521 | 76 | 205 | 4.0 | 8.0 | 0.00 | 0.00 | 0.00 | 92 | 1012.2 |
| 20260507080027 | 76 | 267 | 1.0 | 9.0 | 0.00 | 0.00 | 0.00 | 92 | 1012.4 |
| 20260507074526 | 76 | 172 | 2.0 | 7.0 | 0.00 | 0.00 | 0.00 | 92 | 1012.4 |
| 20260507073016 | 76 | 176 | 2.0 | 8.0 | 0.00 | 0.00 | 0.00 | 92 | 1012.2 |
| 20260507071522 | 76 | 191 | 2.0 | 8.0 | 0.00 | 0.00 | 0.00 | 92 | 1012.7 |
| 20260507070010 | 76 | 131 | 1.0 | 4.0 | 0.00 | 0.00 | 0.00 | 92 | 1012.6 |